sensor_id;sensor_type;location;lat;lon;timestamp;pressure;altitude;pressure_sealevel;temperature;humidity
54910;BME280;63189;51.240;9.964;2023-04-01T00:00:57;95970.81;;;7.89;100.00
54910;BME280;63189;51.240;9.964;2023-04-01T00:03:24;95974.50;;;7.85;100.00
54910;BME280;63189;51.240;9.964;2023-04-01T00:06:15;95975.31;;;7.85;100.00
54910;BME280;63189;51.240;9.964;2023-04-01T00:08:40;95980.44;;;7.87;100.00
54910;BME280;63189;51.240;9.964;2023-04-01T00:11:06;95969.13;;;7.88;100.00
54910;BME280;63189;51.240;9.964;2023-04-01T00:13:31;95962.34;;;7.85;100.00
54910;BME280;63189;51.240;9.964;2023-04-01T00:15:57;95974.56;;;7.83;100.00
54910;BME280;63189;51.240;9.964;2023-04-01T00:18:24;95965.16;;;7.80;100.00
54910;BME280;63189;51.240;9.964;2023-04-01T00:20:50;95960.06;;;7.79;100.00
54910;BME280;63189;51.240;9.964;2023-04-01T00:23:18;95967.72;;;7.82;100.00
54910;BME280;63189;51.240;9.964;2023-04-01T00:25:44;95961.97;;;7.75;100.00
54910;BME280;63189;51.240;9.964;2023-04-01T00:28:10;95960.22;;;7.76;100.00
54910;BME280;63189;51.240;9.964;2023-04-01T00:30:38;95970.69;;;7.74;100.00
54910;BME280;63189;51.240;9.964;2023-04-01T00:33:04;95958.56;;;7.75;100.00
54910;BME280;63189;51.240;9.964;2023-04-01T00:35:30;95960.41;;;7.73;100.00
54910;BME280;63189;51.240;9.964;2023-04-01T00:37:55;95964.75;;;7.72;100.00
54910;BME280;63189;51.240;9.964;2023-04-01T00:40:30;95964.59;;;7.75;100.00
54910;BME280;63189;51.240;9.964;2023-04-01T00:42:56;95958.56;;;7.75;100.00
54910;BME280;63189;51.240;9.964;2023-04-01T00:45:30;95960.31;;;7.74;100.00
54910;BME280;63189;51.240;9.964;2023-04-01T00:47:56;95950.16;;;7.70;100.00
54910;BME280;63189;51.240;9.964;2023-04-01T00:50:24;95960.53;;;7.70;100.00
54910;BME280;63189;51.240;9.964;2023-04-01T00:52:50;95955.28;;;7.71;100.00
54910;BME280;63189;51.240;9.964;2023-04-01T00:55:17;95951.81;;;7.71;100.00
54910;BME280;63189;51.240;9.964;2023-04-01T00:57:45;95951.91;;;7.69;100.00
54910;BME280;63189;51.240;9.964;2023-04-01T01:00:12;95957.88;;;7.71;100.00
54910;BME280;63189;51.240;9.964;2023-04-01T01:02:41;95961.38;;;7.70;100.00
54910;BME280;63189;51.240;9.964;2023-04-01T01:05:11;95954.50;;;7.69;100.00
54910;BME280;63189;51.240;9.964;2023-04-01T01:08:01;95954.50;;;7.69;100.00
54910;BME280;63189;51.240;9.964;2023-04-01T01:10:34;95959.59;;;7.71;100.00
54910;BME280;63189;51.240;9.964;2023-04-01T01:15:37;95958.84;;;7.69;100.00
54910;BME280;63189;51.240;9.964;2023-04-01T01:18:47;95962.19;;;7.71;100.00
54910;BME280;63189;51.240;9.964;2023-04-01T01:26:51;95956.19;;;7.70;100.00
54910;BME280;63189;51.240;9.964;2023-04-01T01:29:34;95964.28;;;7.64;100.00
54910;BME280;63189;51.240;9.964;2023-04-01T01:32:17;95961.78;;;7.63;100.00
54910;BME280;63189;51.240;9.964;2023-04-01T01:37:29;95959.31;;;7.60;100.00
54910;BME280;63189;51.240;9.964;2023-04-01T01:39:59;95958.47;;;7.59;100.00
54910;BME280;63189;51.240;9.964;2023-04-01T01:42:28;95957.88;;;7.54;100.00
54910;BME280;63189;51.240;9.964;2023-04-01T01:44:56;95955.50;;;7.49;100.00
54910;BME280;63189;51.240;9.964;2023-04-01T01:47:23;95957.13;;;7.52;100.00
54910;BME280;63189;51.240;9.964;2023-04-01T01:49:50;95947.69;;;7.51;100.00
54910;BME280;63189;51.240;9.964;2023-04-01T01:52:17;95961.25;;;7.56;100.00
54910;BME280;63189;51.240;9.964;2023-04-01T01:54:53;95951.69;;;7.57;100.00
54910;BME280;63189;51.240;9.964;2023-04-01T01:57:24;95956.13;;;7.55;100.00
54910;BME280;63189;51.240;9.964;2023-04-01T01:59:52;95962.16;;;7.55;100.00
54910;BME280;63189;51.240;9.964;2023-04-01T02:02:21;95961.47;;;7.51;100.00
54910;BME280;63189;51.240;9.964;2023-04-01T02:04:49;95951.47;;;7.44;100.00
54910;BME280;63189;51.240;9.964;2023-04-01T02:07:20;95963.44;;;7.46;100.00
54910;BME280;63189;51.240;9.964;2023-04-01T02:09:48;95963.53;;;7.45;100.00
54910;BME280;63189;51.240;9.964;2023-04-01T02:12:14;95953.16;;;7.45;100.00
54910;BME280;63189;51.240;9.964;2023-04-01T02:17:30;95955.84;;;7.43;100.00
54910;BME280;63189;51.240;9.964;2023-04-01T02:20:00;95962.63;;;7.46;100.00
54910;BME280;63189;51.240;9.964;2023-04-01T02:22:28;95953.06;;;7.46;100.00
54910;BME280;63189;51.240;9.964;2023-04-01T02:24:58;95963.44;;;7.46;100.00
54910;BME280;63189;51.240;9.964;2023-04-01T02:27:24;95960.94;;;7.45;100.00
54910;BME280;63189;51.240;9.964;2023-04-01T02:29:51;95960.19;;;7.43;100.00
54910;BME280;63189;51.240;9.964;2023-04-01T02:32:19;95962.63;;;7.46;100.00
54910;BME280;63189;51.240;9.964;2023-04-01T02:34:45;95956.75;;;7.42;100.00
54910;BME280;63189;51.240;9.964;2023-04-01T02:37:12;95966.88;;;7.47;100.00
54910;BME280;63189;51.240;9.964;2023-04-01T02:39:38;95954.06;;;7.44;100.00
54910;BME280;63189;51.240;9.964;2023-04-01T02:42:04;95954.25;;;7.41;100.00
54910;BME280;63189;51.240;9.964;2023-04-01T02:44:30;95967.97;;;7.43;100.00
54910;BME280;63189;51.240;9.964;2023-04-01T02:46:55;95969.63;;;7.44;100.00
54910;BME280;63189;51.240;9.964;2023-04-01T02:49:20;95965.28;;;7.44;100.00
54910;BME280;63189;51.240;9.964;2023-04-01T02:51:46;95977.25;;;7.47;100.00
54910;BME280;63189;51.240;9.964;2023-04-01T02:54:13;95966.13;;;7.45;100.00
54910;BME280;63189;51.240;9.964;2023-04-01T02:56:38;95966.13;;;7.45;100.00
54910;BME280;63189;51.240;9.964;2023-04-01T02:59:03;95970.47;;;7.44;100.00
54910;BME280;63189;51.240;9.964;2023-04-01T03:01:29;95973.91;;;7.45;100.00
54910;BME280;63189;51.240;9.964;2023-04-01T03:03:54;95979.84;;;7.47;100.00
54910;BME280;63189;51.240;9.964;2023-04-01T03:06:20;95974.06;;;7.42;100.00
54910;BME280;63189;51.240;9.964;2023-04-01T03:08:45;95974.06;;;7.42;100.00
54910;BME280;63189;51.240;9.964;2023-04-01T03:11:11;95976.56;;;7.43;100.00
54910;BME280;63189;51.240;9.964;2023-04-01T03:13:37;95973.34;;;7.38;100.00
54910;BME280;63189;51.240;9.964;2023-04-01T03:16:02;95980.28;;;7.38;100.00
54910;BME280;63189;51.240;9.964;2023-04-01T03:18:28;95978.47;;;7.40;100.00
54910;BME280;63189;51.240;9.964;2023-04-01T03:20:53;95967.19;;;7.41;100.00
54910;BME280;63189;51.240;9.964;2023-04-01T03:23:20;95968.78;;;7.43;100.00
54910;BME280;63189;51.240;9.964;2023-04-01T03:25:46;95974.81;;;7.44;100.00
54910;BME280;63189;51.240;9.964;2023-04-01T03:28:12;95974.81;;;7.44;100.00
54910;BME280;63189;51.240;9.964;2023-04-01T03:30:39;95969.63;;;7.44;100.00
54910;BME280;63189;51.240;9.964;2023-04-01T03:33:06;95969.00;;;7.39;100.00
54910;BME280;63189;51.240;9.964;2023-04-01T03:35:32;95968.25;;;7.37;100.00
54910;BME280;63189;51.240;9.964;2023-04-01T03:37:57;95975.28;;;7.35;100.00
54910;BME280;63189;51.240;9.964;2023-04-01T03:40:22;95975.28;;;7.35;100.00
54910;BME280;63189;51.240;9.964;2023-04-01T03:42:49;95969.53;;;7.28;100.00
54910;BME280;63189;51.240;9.964;2023-04-01T03:45:15;95977.19;;;7.31;100.00
54910;BME280;63189;51.240;9.964;2023-04-01T03:47:41;95977.09;;;7.33;100.00
54910;BME280;63189;51.240;9.964;2023-04-01T03:50:07;95978.16;;;7.29;100.00
54910;BME280;63189;51.240;9.964;2023-04-01T03:52:33;95984.03;;;7.32;100.00
54910;BME280;63189;51.240;9.964;2023-04-01T03:54:58;95981.53;;;7.31;100.00
54910;BME280;63189;51.240;9.964;2023-04-01T03:57:24;95985.88;;;7.30;100.00
54910;BME280;63189;51.240;9.964;2023-04-01T03:59:49;95978.78;;;7.34;100.00
54910;BME280;63189;51.240;9.964;2023-04-01T04:02:14;95985.63;;;7.35;100.00
54910;BME280;63189;51.240;9.964;2023-04-01T04:04:40;95973.75;;;7.31;100.00
54910;BME280;63189;51.240;9.964;2023-04-01T04:07:06;95989.31;;;7.31;100.00
54910;BME280;63189;51.240;9.964;2023-04-01T04:09:31;95978.16;;;7.29;100.00
54910;BME280;63189;51.240;9.964;2023-04-01T04:11:58;95984.25;;;7.28;100.00
54910;BME280;63189;51.240;9.964;2023-04-01T04:14:24;95986.09;;;7.26;100.00
54910;BME280;63189;51.240;9.964;2023-04-01T04:16:49;95987.75;;;7.27;100.00
54910;BME280;63189;51.240;9.964;2023-04-01T04:19:15;95987.75;;;7.27;100.00
54910;BME280;63189;51.240;9.964;2023-04-01T04:21:41;95991.34;;;7.24;100.00
54910;BME280;63189;51.240;9.964;2023-04-01T04:24:07;95990.50;;;7.23;100.00
54910;BME280;63189;51.240;9.964;2023-04-01T04:26:33;95995.78;;;7.22;100.00
54910;BME280;63189;51.240;9.964;2023-04-01T04:28:59;95991.50;;;7.21;100.00
54910;BME280;63189;51.240;9.964;2023-04-01T04:31:25;95981.22;;;7.19;100.00
54910;BME280;63189;51.240;9.964;2023-04-01T04:33:51;95988.22;;;7.17;100.00
54910;BME280;63189;51.240;9.964;2023-04-01T04:36:17;96001.31;;;7.14;100.00
54910;BME280;63189;51.240;9.964;2023-04-01T04:38:43;95990.97;;;7.14;100.00
54910;BME280;63189;51.240;9.964;2023-04-01T04:41:15;96000.41;;;7.15;100.00
54910;BME280;63189;51.240;9.964;2023-04-01T04:43:49;95997.81;;;7.15;100.00
54910;BME280;63189;51.240;9.964;2023-04-01T04:46:14;95988.38;;;7.14;100.00
54910;BME280;63189;51.240;9.964;2023-04-01T04:48:39;95990.03;;;7.15;100.00
54910;BME280;63189;51.240;9.964;2023-04-01T04:51:05;95988.38;;;7.14;100.00
54910;BME280;63189;51.240;9.964;2023-04-01T04:53:30;95989.28;;;7.13;100.00
54910;BME280;63189;51.240;9.964;2023-04-01T04:55:55;95990.03;;;7.15;100.00
54910;BME280;63189;51.240;9.964;2023-04-01T04:58:21;95990.28;;;7.11;100.00
54910;BME280;63189;51.240;9.964;2023-04-01T05:00:46;95994.47;;;7.13;100.00
54910;BME280;63189;51.240;9.964;2023-04-01T05:03:13;95997.22;;;7.10;100.00
54910;BME280;63189;51.240;9.964;2023-04-01T05:05:39;95989.44;;;7.10;100.00
54910;BME280;63189;51.240;9.964;2023-04-01T05:08:05;95990.97;;;7.14;100.00
54910;BME280;63189;51.240;9.964;2023-04-01T05:10:31;95998.72;;;7.14;100.00
54910;BME280;63189;51.240;9.964;2023-04-01T05:12:57;95997.06;;;7.13;100.00
54910;BME280;63189;51.240;9.964;2023-04-01T05:15:23;95991.88;;;7.13;100.00
54910;BME280;63189;51.240;9.964;2023-04-01T05:17:50;95999.00;;;7.08;100.00
54910;BME280;63189;51.240;9.964;2023-04-01T05:20:16;96001.56;;;7.10;100.00
54910;BME280;63189;51.240;9.964;2023-04-01T05:22:42;95993.78;;;7.10;100.00
54910;BME280;63189;51.240;9.964;2023-04-01T05:25:08;95988.81;;;7.05;100.00
54910;BME280;63189;51.240;9.964;2023-04-01T05:27:33;95983.69;;;7.04;100.00
54910;BME280;63189;51.240;9.964;2023-04-01T05:29:58;95993.00;;;7.08;100.00
54910;BME280;63189;51.240;9.964;2023-04-01T05:32:24;96000.72;;;7.09;100.00
54910;BME280;63189;51.240;9.964;2023-04-01T05:34:51;95984.34;;;7.09;100.00
54910;BME280;63189;51.240;9.964;2023-04-01T05:37:17;95993.81;;;7.08;100.00
54910;BME280;63189;51.240;9.964;2023-04-01T05:39:42;95997.13;;;7.12;100.00
54910;BME280;63189;51.240;9.964;2023-04-01T05:42:08;95992.03;;;7.10;100.00
54910;BME280;63189;51.240;9.964;2023-04-01T05:44:35;95996.28;;;7.11;100.00
54910;BME280;63189;51.240;9.964;2023-04-01T05:47:01;95993.97;;;7.05;100.00
54910;BME280;63189;51.240;9.964;2023-04-01T05:49:27;95997.50;;;7.04;100.00
54910;BME280;63189;51.240;9.964;2023-04-01T05:51:54;95993.97;;;7.05;100.00
54910;BME280;63189;51.240;9.964;2023-04-01T05:54:20;96005.25;;;7.04;100.00
54910;BME280;63189;51.240;9.964;2023-04-01T05:56:45;96000.16;;;7.03;100.00
54910;BME280;63189;51.240;9.964;2023-04-01T05:59:11;96004.50;;;7.02;100.00
54910;BME280;63189;51.240;9.964;2023-04-01T06:01:37;96000.09;;;7.04;100.00
54910;BME280;63189;51.240;9.964;2023-04-01T06:04:02;96000.00;;;7.06;100.00
54910;BME280;63189;51.240;9.964;2023-04-01T06:06:30;96005.94;;;7.08;100.00
54910;BME280;63189;51.240;9.964;2023-04-01T06:09:13;96016.47;;;7.05;100.00
54910;BME280;63189;51.240;9.964;2023-04-01T06:11:57;96012.03;;;7.07;100.00
54910;BME280;63189;51.240;9.964;2023-04-01T06:23:01;96006.25;;;7.02;100.00
54910;BME280;63189;51.240;9.964;2023-04-01T06:25:38;96016.53;;;7.03;100.00
54910;BME280;63189;51.240;9.964;2023-04-01T06:30:59;96020.72;;;7.06;100.00
54910;BME280;63189;51.240;9.964;2023-04-01T06:36:19;96026.63;;;7.09;100.00
54910;BME280;63189;51.240;9.964;2023-04-01T06:39:06;96021.50;;;7.08;100.00
54910;BME280;63189;51.240;9.964;2023-04-01T06:44:28;96025.78;;;7.09;100.00
54910;BME280;63189;51.240;9.964;2023-04-01T06:47:01;96025.72;;;7.10;100.00
54910;BME280;63189;51.240;9.964;2023-04-01T07:00:44;96031.66;;;7.12;100.00
54910;BME280;63189;51.240;9.964;2023-04-01T07:03:32;96029.81;;;7.14;100.00
54910;BME280;63189;51.240;9.964;2023-04-01T07:06:03;96022.22;;;7.11;100.00
54910;BME280;63189;51.240;9.964;2023-04-01T07:08:29;96024.81;;;7.11;100.00
54910;BME280;63189;51.240;9.964;2023-04-01T07:11:05;96022.13;;;7.13;100.00
54910;BME280;63189;51.240;9.964;2023-04-01T07:13:39;96029.81;;;7.14;100.00
54910;BME280;63189;51.240;9.964;2023-04-01T07:19:02;96029.59;;;7.19;100.00
54910;BME280;63189;51.240;9.964;2023-04-01T07:21:55;96029.66;;;7.17;100.00
54910;BME280;63189;51.240;9.964;2023-04-01T07:24:42;96029.59;;;7.19;100.00
54910;BME280;63189;51.240;9.964;2023-04-01T07:27:11;96028.72;;;7.20;100.00
54910;BME280;63189;51.240;9.964;2023-04-01T07:29:36;96027.72;;;7.22;100.00
54910;BME280;63189;51.240;9.964;2023-04-01T07:32:20;96036.88;;;7.30;100.00
54910;BME280;63189;51.240;9.964;2023-04-01T07:34:52;96036.09;;;7.28;100.00
54910;BME280;63189;51.240;9.964;2023-04-01T07:37:39;96041.16;;;7.31;100.00
54910;BME280;63189;51.240;9.964;2023-04-01T07:40:28;96034.75;;;7.38;100.00
54910;BME280;63189;51.240;9.964;2023-04-01T07:46:07;96040.47;;;7.44;100.00
54910;BME280;63189;51.240;9.964;2023-04-01T07:51:27;96048.09;;;7.47;100.00
54910;BME280;63189;51.240;9.964;2023-04-01T07:54:25;96043.75;;;7.48;100.00
54910;BME280;63189;51.240;9.964;2023-04-01T08:08:08;96050.94;;;7.43;100.00
54910;BME280;63189;51.240;9.964;2023-04-01T08:14:01;96055.56;;;7.36;100.00
54910;BME280;63189;51.240;9.964;2023-04-01T08:17:02;96062.97;;;7.44;100.00
54910;BME280;63189;51.240;9.964;2023-04-01T08:22:29;96067.31;;;7.43;100.00
54910;BME280;63189;51.240;9.964;2023-04-01T08:24:58;96069.69;;;7.48;100.00
54910;BME280;63189;51.240;9.964;2023-04-01T08:27:40;96060.84;;;7.52;100.00
54910;BME280;63189;51.240;9.964;2023-04-01T08:30:29;96067.28;;;7.62;100.00
54910;BME280;63189;51.240;9.964;2023-04-01T08:33:16;96073.44;;;7.60;100.00
54910;BME280;63189;51.240;9.964;2023-04-01T08:35:50;96070.72;;;7.63;100.00
54910;BME280;63189;51.240;9.964;2023-04-01T08:38:40;96069.56;;;7.68;100.00
54910;BME280;63189;51.240;9.964;2023-04-01T08:44:16;96061.47;;;7.74;100.00
54910;BME280;63189;51.240;9.964;2023-04-01T08:52:29;96073.84;;;7.87;100.00
54910;BME280;63189;51.240;9.964;2023-04-01T09:00:22;96071.00;;;7.91;100.00
54910;BME280;63189;51.240;9.964;2023-04-01T09:26:37;96076.03;;;8.11;100.00
54910;BME280;63189;51.240;9.964;2023-04-01T09:43:26;96095.59;;;8.36;100.00
54910;BME280;63189;51.240;9.964;2023-04-01T09:51:50;96098.03;;;8.39;100.00
54910;BME280;63189;51.240;9.964;2023-04-01T10:00:07;96108.41;;;8.39;100.00
54910;BME280;63189;51.240;9.964;2023-04-01T10:14:42;96115.47;;;8.53;100.00
54910;BME280;63189;51.240;9.964;2023-04-01T10:36:59;96119.16;;;8.66;100.00
54910;BME280;63189;51.240;9.964;2023-04-01T10:50:25;96116.59;;;8.98;100.00
54910;BME280;63189;51.240;9.964;2023-04-01T10:53:49;96117.09;;;9.04;100.00
54910;BME280;63189;51.240;9.964;2023-04-01T10:56:40;96119.13;;;9.15;100.00
54910;BME280;63189;51.240;9.964;2023-04-01T10:59:45;96126.44;;;9.24;100.00
54910;BME280;63189;51.240;9.964;2023-04-01T11:08:04;96117.34;;;9.15;100.00
54910;BME280;63189;51.240;9.964;2023-04-01T11:24:41;96127.06;;;8.96;100.00
54910;BME280;63189;51.240;9.964;2023-04-01T11:27:21;96120.88;;;8.99;100.00
54910;BME280;63189;51.240;9.964;2023-04-01T11:30:09;96122.72;;;8.96;100.00
54910;BME280;63189;51.240;9.964;2023-04-01T11:32:50;96133.03;;;8.98;100.00
54910;BME280;63189;51.240;9.964;2023-04-01T11:38:09;96128.75;;;9.13;100.00
54910;BME280;63189;51.240;9.964;2023-04-01T11:43:49;96127.94;;;9.28;100.00
54910;BME280;63189;51.240;9.964;2023-04-01T11:46:27;96122.56;;;9.31;100.00
54910;BME280;63189;51.240;9.964;2023-04-01T11:57:57;96132.63;;;9.53;100.00
54910;BME280;63189;51.240;9.964;2023-04-01T12:06:08;96149.81;;;9.55;100.00
54910;BME280;63189;51.240;9.964;2023-04-01T12:17:48;96150.91;;;9.36;100.00
54910;BME280;63189;51.240;9.964;2023-04-01T12:20:39;96151.75;;;9.36;100.00
54910;BME280;63189;51.240;9.964;2023-04-01T12:23:40;96159.06;;;9.30;100.00
54910;BME280;63189;51.240;9.964;2023-04-01T12:26:23;96159.47;;;9.22;100.00
54910;BME280;63189;51.240;9.964;2023-04-01T12:29:16;96151.75;;;9.20;100.00
54910;BME280;63189;51.240;9.964;2023-04-01T12:38:09;96167.19;;;9.08;100.00
54910;BME280;63189;51.240;9.964;2023-04-01T12:40:57;96167.31;;;9.05;100.00
54910;BME280;63189;51.240;9.964;2023-04-01T12:43:45;96169.59;;;9.11;100.00
54910;BME280;63189;51.240;9.964;2023-04-01T12:46:46;96166.66;;;9.17;100.00
54910;BME280;63189;51.240;9.964;2023-04-01T12:49:39;96176.66;;;9.24;100.00
54910;BME280;63189;51.240;9.964;2023-04-01T12:52:15;96165.25;;;9.27;100.00
54910;BME280;63189;51.240;9.964;2023-04-01T12:54:59;96174.75;;;9.44;100.00
54910;BME280;63189;51.240;9.964;2023-04-01T12:57:46;96172.66;;;9.50;100.00
54910;BME280;63189;51.240;9.964;2023-04-01T13:06:26;96178.78;;;9.65;100.00
54910;BME280;63189;51.240;9.964;2023-04-01T13:20:36;96196.06;;;9.66;100.00
54910;BME280;63189;51.240;9.964;2023-04-01T13:33:47;96206.13;;;9.57;100.00
54910;BME280;63189;51.240;9.964;2023-04-01T13:36:42;96205.66;;;9.50;100.00
54910;BME280;63189;51.240;9.964;2023-04-01T13:39:23;96204.97;;;9.46;100.00
54910;BME280;63189;51.240;9.964;2023-04-01T13:53:04;96228.06;;;9.52;100.00
54910;BME280;63189;51.240;9.964;2023-04-01T13:55:39;96212.75;;;9.46;100.00
54910;BME280;63189;51.240;9.964;2023-04-01T14:01:15;96224.84;;;9.47;100.00
54910;BME280;63189;51.240;9.964;2023-04-01T14:11:52;96225.28;;;9.40;100.00
54910;BME280;63189;51.240;9.964;2023-04-01T14:14:36;96229.16;;;9.48;100.00
54910;BME280;63189;51.240;9.964;2023-04-01T14:22:38;96236.97;;;9.48;100.00
54910;BME280;63189;51.240;9.964;2023-04-01T14:27:59;96237.84;;;9.47;100.00
54910;BME280;63189;51.240;9.964;2023-04-01T14:30:42;96240.78;;;9.41;100.00
54910;BME280;63189;51.240;9.964;2023-04-01T14:33:24;96236.53;;;9.40;100.00
54910;BME280;63189;51.240;9.964;2023-04-01T14:38:55;96242.31;;;9.45;100.00
54910;BME280;63189;51.240;9.964;2023-04-01T14:44:23;96244.75;;;9.48;100.00
54910;BME280;63189;51.240;9.964;2023-04-01T14:50:05;96243.97;;;9.46;100.00
54910;BME280;63189;51.240;9.964;2023-04-01T14:52:35;96251.78;;;9.46;100.00
54910;BME280;63189;51.240;9.964;2023-04-01T14:55:18;96250.09;;;9.45;100.00
54910;BME280;63189;51.240;9.964;2023-04-01T15:07:18;96252.25;;;9.37;100.00
54910;BME280;63189;51.240;9.964;2023-04-01T15:13:25;96272.94;;;9.40;100.00
54910;BME280;63189;51.240;9.964;2023-04-01T15:16:11;96267.97;;;9.36;100.00
54910;BME280;63189;51.240;9.964;2023-04-01T15:24:46;96287.78;;;9.38;100.00
54910;BME280;63189;51.240;9.964;2023-04-01T15:38:34;96298.88;;;9.42;100.00
54910;BME280;63189;51.240;9.964;2023-04-01T15:41:17;96298.88;;;9.42;100.00
54910;BME280;63189;51.240;9.964;2023-04-01T15:43:47;96300.63;;;9.41;100.00
54910;BME280;63189;51.240;9.964;2023-04-01T15:49:35;96299.34;;;9.33;100.00
54910;BME280;63189;51.240;9.964;2023-04-01T15:55:01;96310.50;;;9.35;100.00
54910;BME280;63189;51.240;9.964;2023-04-01T16:00:30;96316.69;;;9.32;100.00
54910;BME280;63189;51.240;9.964;2023-04-01T16:05:42;96317.72;;;9.30;100.00
54910;BME280;63189;51.240;9.964;2023-04-01T16:10:52;96328.13;;;9.30;100.00
54910;BME280;63189;51.240;9.964;2023-04-01T16:13:59;96329.09;;;9.27;100.00
54910;BME280;63189;51.240;9.964;2023-04-01T16:19:41;96329.09;;;9.27;100.00
54910;BME280;63189;51.240;9.964;2023-04-01T16:24:46;96330.84;;;9.26;100.00
54910;BME280;63189;51.240;9.964;2023-04-01T16:27:42;96327.75;;;9.20;100.00
54910;BME280;63189;51.240;9.964;2023-04-01T16:32:53;96344.34;;;9.17;100.00
54910;BME280;63189;51.240;9.964;2023-04-01T16:41:07;96353.28;;;9.12;100.00
54910;BME280;63189;51.240;9.964;2023-04-01T16:43:42;96348.00;;;9.13;100.00
54910;BME280;63189;51.240;9.964;2023-04-01T16:46:35;96357.41;;;9.16;100.00
54910;BME280;63189;51.240;9.964;2023-04-01T16:51:48;96369.56;;;9.15;100.00
54910;BME280;63189;51.240;9.964;2023-04-01T16:57:17;96371.56;;;9.10;100.00
54910;BME280;63189;51.240;9.964;2023-04-01T17:02:30;96378.53;;;9.10;100.00
54910;BME280;63189;51.240;9.964;2023-04-01T17:07:50;96388.91;;;9.10;100.00
54910;BME280;63189;51.240;9.964;2023-04-01T17:18:25;96402.69;;;9.12;100.00
54910;BME280;63189;51.240;9.964;2023-04-01T17:21:09;96404.53;;;9.10;100.00
54910;BME280;63189;51.240;9.964;2023-04-01T17:23:43;96413.06;;;9.12;100.00
54910;BME280;63189;51.240;9.964;2023-04-01T17:26:22;96415.84;;;9.09;100.00
54910;BME280;63189;51.240;9.964;2023-04-01T17:40:15;96431.56;;;9.06;100.00
54910;BME280;63189;51.240;9.964;2023-04-01T17:42:59;96441.91;;;9.07;100.00
54910;BME280;63189;51.240;9.964;2023-04-01T17:45:57;96445.47;;;9.05;100.00
54910;BME280;63189;51.240;9.964;2023-04-01T17:48:44;96453.38;;;9.03;100.00
54910;BME280;63189;51.240;9.964;2023-04-01T18:02:44;96476.75;;;9.03;100.00
54910;BME280;63189;51.240;9.964;2023-04-01T18:11:03;96477.75;;;9.01;100.00
54910;BME280;63189;51.240;9.964;2023-04-01T18:13:51;96491.59;;;9.01;100.00
54910;BME280;63189;51.240;9.964;2023-04-01T18:16:36;96491.50;;;9.03;100.00
54910;BME280;63189;51.240;9.964;2023-04-01T18:24:45;96506.28;;;9.02;100.00
54910;BME280;63189;51.240;9.964;2023-04-01T18:27:23;96511.56;;;9.01;100.00
54910;BME280;63189;51.240;9.964;2023-04-01T18:29:53;96521.03;;;9.02;100.00
54910;BME280;63189;51.240;9.964;2023-04-01T18:35:29;96537.69;;;8.98;100.00
54910;BME280;63189;51.240;9.964;2023-04-01T18:38:20;96534.38;;;8.94;100.00
54910;BME280;63189;51.240;9.964;2023-04-01T18:43:49;96545.78;;;8.91;100.00
54910;BME280;63189;51.240;9.964;2023-04-01T18:51:49;96555.97;;;8.77;100.00
54910;BME280;63189;51.240;9.964;2023-04-01T18:54:40;96567.28;;;8.76;100.00
54910;BME280;63189;51.240;9.964;2023-04-01T18:57:13;96572.66;;;8.72;100.00
54910;BME280;63189;51.240;9.964;2023-04-01T18:59:43;96572.75;;;8.70;100.00
54910;BME280;63189;51.240;9.964;2023-04-01T19:02:40;96582.38;;;8.68;100.00
54910;BME280;63189;51.240;9.964;2023-04-01T19:07:45;96591.16;;;8.65;100.00
54910;BME280;63189;51.240;9.964;2023-04-01T19:13:10;96599.13;;;8.61;100.00
54910;BME280;63189;51.240;9.964;2023-04-01T19:15:42;96599.13;;;8.61;100.00
54910;BME280;63189;51.240;9.964;2023-04-01T19:21:01;96617.38;;;8.59;100.00
54910;BME280;63189;51.240;9.964;2023-04-01T19:23:56;96616.53;;;8.59;100.00
54910;BME280;63189;51.240;9.964;2023-04-01T19:26:36;96611.50;;;8.56;100.00
54910;BME280;63189;51.240;9.964;2023-04-01T19:37:51;96619.59;;;8.48;100.00
54910;BME280;63189;51.240;9.964;2023-04-01T19:43:29;96629.31;;;8.45;100.00
54910;BME280;63189;51.240;9.964;2023-04-01T19:46:26;96634.50;;;8.45;100.00
54910;BME280;63189;51.240;9.964;2023-04-01T19:53:56;96636.44;;;8.39;100.00
54910;BME280;63189;51.240;9.964;2023-04-01T19:56:24;96652.16;;;8.36;100.00
54910;BME280;63189;51.240;9.964;2023-04-01T20:02:04;96661.06;;;8.29;100.00
54910;BME280;63189;51.240;9.964;2023-04-01T20:04:44;96657.63;;;8.29;100.00
54910;BME280;63189;51.240;9.964;2023-04-01T20:09:58;96664.72;;;8.25;100.00
54910;BME280;63189;51.240;9.964;2023-04-01T20:15:28;96675.28;;;8.21;100.00
54910;BME280;63189;51.240;9.964;2023-04-01T20:17:58;96675.41;;;8.18;100.00
54910;BME280;63189;51.240;9.964;2023-04-01T20:20:27;96684.03;;;8.18;100.00
54910;BME280;63189;51.240;9.964;2023-04-01T20:23:01;96689.38;;;8.15;100.00
54910;BME280;63189;51.240;9.964;2023-04-01T20:31:09;96698.97;;;8.13;100.00
54910;BME280;63189;51.240;9.964;2023-04-01T20:37:02;96704.09;;;8.15;100.00
54910;BME280;63189;51.240;9.964;2023-04-01T20:39:56;96717.16;;;8.13;100.00
54910;BME280;63189;51.240;9.964;2023-04-01T20:43:07;96722.22;;;8.16;100.00
54910;BME280;63189;51.240;9.964;2023-04-01T20:51:53;96721.31;;;8.17;100.00
54910;BME280;63189;51.240;9.964;2023-04-01T21:00:15;96725.59;;;8.18;100.00
54910;BME280;63189;51.240;9.964;2023-04-01T21:11:43;96732.41;;;8.21;100.00
54910;BME280;63189;51.240;9.964;2023-04-01T21:25:30;96766.41;;;8.15;100.00
54910;BME280;63189;51.240;9.964;2023-04-01T21:28:31;96766.41;;;8.15;100.00
54910;BME280;63189;51.240;9.964;2023-04-01T21:31:43;96766.41;;;8.15;100.00
54910;BME280;63189;51.240;9.964;2023-04-01T21:39:42;96780.22;;;8.15;100.00
54910;BME280;63189;51.240;9.964;2023-04-01T21:42:32;96789.72;;;8.16;100.00
54910;BME280;63189;51.240;9.964;2023-04-01T21:45:31;96793.22;;;8.15;100.00
54910;BME280;63189;51.240;9.964;2023-04-01T21:48:05;96796.75;;;8.13;100.00
54910;BME280;63189;51.240;9.964;2023-04-01T21:58:46;96822.13;;;8.06;100.00
54910;BME280;63189;51.240;9.964;2023-04-01T22:04:36;96831.94;;;7.98;100.00
54910;BME280;63189;51.240;9.964;2023-04-01T22:09:29;96832.91;;;7.95;100.00